createdAt,value
2022-12-26T00:00:03.633Z,590.51
2022-12-26T00:00:14.500Z,590.41
2022-12-26T00:00:35.403Z,590.23
2022-12-26T00:00:38.615Z,590.21
2022-12-26T00:00:49.545Z,590.12
2022-12-26T00:01:00.531Z,590.17
2022-12-26T00:01:11.505Z,590.19
2022-12-26T00:01:23.506Z,590.19
2022-12-26T00:04:49.646Z,590.66
2022-12-26T00:04:50.630Z,590.53
2022-12-26T00:04:51.124Z,590.37
2022-12-26T00:04:52.232Z,590.59
2022-12-26T00:04:59.697Z,590.70
2022-12-26T00:08:33.534Z,591.47
2022-12-26T00:08:45.542Z,591.56
2022-12-26T00:08:57.484Z,591.56
2022-12-26T00:09:08.550Z,591.64
2022-12-26T00:09:20.468Z,591.64
2022-12-26T00:09:31.548Z,591.75
2022-12-26T00:09:43.504Z,591.83
2022-12-26T00:09:54.568Z,591.97
2022-12-26T00:10:06.520Z,592.05
2022-12-26T00:10:17.481Z,591.93
2022-12-26T00:10:28.464Z,591.99
2022-12-26T00:10:39.520Z,592.14
2022-12-26T00:10:50.507Z,592.25
2022-12-26T00:11:02.519Z,592.37
2022-12-26T00:11:13.477Z,592.54
2022-12-26T00:11:24.547Z,592.67
2022-12-26T00:11:35.528Z,592.56
2022-12-26T00:11:46.477Z,592.52
2022-12-26T00:14:51.542Z,593.12
2022-12-26T00:15:02.496Z,593.29
2022-12-26T00:16:24.608Z,593.40
2022-12-26T00:16:35.658Z,593.18
2022-12-26T00:16:47.582Z,593.37
2022-12-26T00:16:58.468Z,593.45
2022-12-26T00:17:09.512Z,593.50
2022-12-26T00:17:20.482Z,593.22
2022-12-26T00:17:31.537Z,593.34
2022-12-26T00:17:42.510Z,593.65
2022-12-26T00:17:53.555Z,593.48
2022-12-26T00:18:05.468Z,593.33
2022-12-26T00:18:16.553Z,593.21
2022-12-26T00:18:28.475Z,593.33
2022-12-26T00:18:39.561Z,593.18
2022-12-26T00:18:50.518Z,593.31
2022-12-26T00:19:01.481Z,593.20
2022-12-26T00:19:13.496Z,593.02
2022-12-26T00:19:25.509Z,593.13
2022-12-26T00:19:36.481Z,593.25
2022-12-26T00:19:47.538Z,593.53
2022-12-26T00:19:59.565Z,593.52
2022-12-26T00:20:10.524Z,593.27
2022-12-26T00:20:22.530Z,593.25
2022-12-26T00:20:33.491Z,593.17
2022-12-26T00:22:54.830Z,593.61
2022-12-26T00:23:06.543Z,593.43
2022-12-26T00:23:17.516Z,593.47
2022-12-26T00:23:29.523Z,593.66
2022-12-26T00:23:40.508Z,593.80
2022-12-26T00:23:52.513Z,593.69
2022-12-26T00:24:04.521Z,593.56
2022-12-26T00:24:16.540Z,593.39
2022-12-26T00:24:28.551Z,593.50
2022-12-26T00:24:39.521Z,593.51
2022-12-26T00:24:51.537Z,593.42
2022-12-26T00:25:03.548Z,593.32
2022-12-26T00:25:14.514Z,593.49
2022-12-26T00:33:53.505Z,593.96
2022-12-26T00:34:04.563Z,594.10
2022-12-26T00:34:16.471Z,594.09
2022-12-26T00:34:27.532Z,593.96
2022-12-26T00:34:39.551Z,593.89
2022-12-26T00:35:58.523Z,594.06
2022-12-26T00:36:10.529Z,594.18
2022-12-26T00:36:22.535Z,594.39
2022-12-26T00:36:34.556Z,594.76
2022-12-26T00:36:46.479Z,594.78
2022-12-26T00:36:58.492Z,594.67
2022-12-26T00:37:09.557Z,594.88
2022-12-26T00:37:21.461Z,594.78
2022-12-26T00:37:32.537Z,594.64
2022-12-26T00:37:43.482Z,594.63
2022-12-26T00:37:55.487Z,594.46
2022-12-26T00:38:06.468Z,594.44
2022-12-26T00:38:17.525Z,594.44
2022-12-26T00:38:28.503Z,594.36
2022-12-26T00:38:39.464Z,594.29
2022-12-26T00:38:50.558Z,594.25
2022-12-26T00:39:01.522Z,594.13
2022-12-26T00:39:13.521Z,594.00
2022-12-26T00:39:25.530Z,594.42
2022-12-26T00:39:37.530Z,594.26
2022-12-26T00:39:48.484Z,594.19
2022-12-26T00:40:00.486Z,594.31
2022-12-26T00:40:11.551Z,594.35
2022-12-26T00:40:23.500Z,594.32
2022-12-26T00:40:34.465Z,594.62
2022-12-26T00:40:45.511Z,594.51
2022-12-26T00:40:56.476Z,594.37
2022-12-26T00:41:08.496Z,594.16
2022-12-26T00:41:20.506Z,594.21
2022-12-26T00:41:31.496Z,594.21
2022-12-26T00:41:42.468Z,594.25
2022-12-26T00:41:53.524Z,594.03
2022-12-26T00:42:05.527Z,594.27
2022-12-26T00:42:16.486Z,594.26
2022-12-26T00:42:27.463Z,594.18
2022-12-26T00:42:38.508Z,594.29
2022-12-26T00:42:49.465Z,594.14
2022-12-26T00:43:00.522Z,594.30
2022-12-26T00:43:12.543Z,594.36
2022-12-26T00:43:24.483Z,594.31
2022-12-26T00:43:35.541Z,594.31
2022-12-26T00:43:47.545Z,594.49
2022-12-26T00:43:59.492Z,594.40
2022-12-26T00:44:10.554Z,594.31
2022-12-26T00:44:22.486Z,594.34
2022-12-26T00:44:33.558Z,594.15
2022-12-26T00:44:44.514Z,594.22
2022-12-26T00:44:55.487Z,594.21
2022-12-26T00:45:07.498Z,594.06
2022-12-26T00:45:19.516Z,594.16
2022-12-26T00:45:30.498Z,594.61
2022-12-26T00:45:41.555Z,594.57
2022-12-26T00:45:52.501Z,594.47
2022-12-26T00:46:03.467Z,594.22
2022-12-26T00:47:25.545Z,594.42
2022-12-26T00:47:37.459Z,594.74
2022-12-26T00:47:48.518Z,594.64
2022-12-26T00:48:00.537Z,594.86
2022-12-26T00:48:11.495Z,594.75
2022-12-26T00:48:23.512Z,594.63
2022-12-26T00:48:34.479Z,594.61
2022-12-26T00:48:46.509Z,594.69
2022-12-26T00:48:58.509Z,594.66
2022-12-26T00:49:09.501Z,594.68
2022-12-26T00:49:20.466Z,594.57
2022-12-26T00:50:11.398Z,594.68
2022-12-26T00:50:13.053Z,594.80
2022-12-26T00:50:13.222Z,594.70
2022-12-26T00:50:13.406Z,594.52
2022-12-26T00:50:20.497Z,594.86
2022-12-26T00:50:34.580Z,594.66
2022-12-26T00:50:42.535Z,594.45
2022-12-26T00:50:53.481Z,594.48
2022-12-26T00:51:04.480Z,594.30
2022-12-26T00:51:15.476Z,594.37
2022-12-26T00:51:27.490Z,594.43
2022-12-26T00:51:39.538Z,594.48
2022-12-26T00:51:50.500Z,594.57
2022-12-26T00:52:01.571Z,594.62
2022-12-26T00:52:13.482Z,594.71
2022-12-26T00:52:25.487Z,594.57
2022-12-26T00:52:37.485Z,594.57
2022-12-26T00:52:49.540Z,594.75
2022-12-26T00:53:00.483Z,594.78
2022-12-26T00:53:12.505Z,594.86
2022-12-26T00:53:23.470Z,594.81
2022-12-26T00:53:35.498Z,594.80
2022-12-26T00:53:47.494Z,594.72
2022-12-26T00:53:59.526Z,594.90
2022-12-26T00:54:10.491Z,594.79
2022-12-26T00:54:21.542Z,594.99
2022-12-26T00:54:32.497Z,595.02
2022-12-26T00:54:43.596Z,594.91
2022-12-26T00:54:54.555Z,594.90
2022-12-26T00:55:05.547Z,594.77
2022-12-26T00:55:16.498Z,594.69
2022-12-26T00:55:27.556Z,594.71
2022-12-26T00:55:39.464Z,594.78
2022-12-26T00:55:50.534Z,594.60
2022-12-26T00:56:02.573Z,594.87
2022-12-26T00:56:14.505Z,594.85
2022-12-26T00:56:25.502Z,594.71
2022-12-26T00:56:37.511Z,594.45
2022-12-26T00:56:49.523Z,594.29
2022-12-26T00:57:00.482Z,594.49
2022-12-26T00:57:12.500Z,594.39
2022-12-26T00:57:24.512Z,594.65
2022-12-26T00:57:36.527Z,594.40
2022-12-26T00:57:48.528Z,594.51
2022-12-26T00:58:00.541Z,594.53
2022-12-26T00:58:12.560Z,594.58
2022-12-26T00:58:23.519Z,594.55
2022-12-26T00:58:34.480Z,594.54
2022-12-26T00:58:46.495Z,594.49
2022-12-26T00:58:58.497Z,594.38
2022-12-26T00:59:10.499Z,593.98
2022-12-26T00:59:22.513Z,594.01
2022-12-26T00:59:33.496Z,593.94
2022-12-26T00:59:44.591Z,593.75
2022-12-26T00:59:56.510Z,593.82
2022-12-26T01:00:08.522Z,593.66
2022-12-26T01:00:20.519Z,593.76
2022-12-26T01:00:31.554Z,593.80
2022-12-26T01:00:42.605Z,593.75
2022-12-26T01:00:54.524Z,593.84
2022-12-26T01:01:05.638Z,593.60
2022-12-26T01:01:16.600Z,593.69
2022-12-26T01:01:27.625Z,593.88
2022-12-26T01:01:38.682Z,593.59
2022-12-26T01:03:38.555Z,593.82
2022-12-26T01:03:50.502Z,594.03
2022-12-26T01:04:01.466Z,594.07
2022-12-26T01:04:12.521Z,594.30
2022-12-26T01:04:24.523Z,594.31
2022-12-26T01:04:35.559Z,594.18
2022-12-26T01:04:47.481Z,594.18
2022-12-26T01:04:58.538Z,594.04
2022-12-26T01:05:10.553Z,593.92
2022-12-26T01:05:21.515Z,594.02
2022-12-26T01:05:33.521Z,593.99
2022-12-26T01:05:44.484Z,593.70
2022-12-26T01:05:55.546Z,593.65
2022-12-26T01:06:06.503Z,593.80
2022-12-26T01:06:17.465Z,593.78
2022-12-26T01:06:28.524Z,593.56
2022-12-26T01:06:39.510Z,593.48
2022-12-26T01:06:51.513Z,593.44
2022-12-26T01:07:03.521Z,593.37
2022-12-26T01:07:15.526Z,593.34
2022-12-26T01:07:26.484Z,593.20
2022-12-26T01:08:21.583Z,593.22
2022-12-26T01:08:21.755Z,592.87
2022-12-26T01:08:21.755Z,592.93
2022-12-26T01:08:23.585Z,593.15
2022-12-26T01:08:26.481Z,593.16
2022-12-26T01:13:48.505Z,593.25
2022-12-26T01:14:00.515Z,593.43
2022-12-26T01:14:12.525Z,593.25
2022-12-26T01:14:23.474Z,593.17
2022-12-26T01:14:34.541Z,593.18
2022-12-26T01:14:46.555Z,593.20
2022-12-26T01:14:58.483Z,592.94
2022-12-26T01:15:10.488Z,593.08
2022-12-26T01:15:21.604Z,593.31
2022-12-26T01:15:33.518Z,593.90
2022-12-26T01:15:44.481Z,594.03
2022-12-26T01:15:56.562Z,594.10
2022-12-26T01:16:07.476Z,593.61
2022-12-26T01:17:25.492Z,594.33
2022-12-26T01:17:37.488Z,594.50
2022-12-26T01:17:49.502Z,594.47
2022-12-26T01:18:00.468Z,594.38
2022-12-26T01:18:11.529Z,594.18
2022-12-26T01:18:23.540Z,593.75
2022-12-26T01:18:35.554Z,593.33
2022-12-26T01:18:47.549Z,593.23
2022-12-26T01:20:32.558Z,591.10
2022-12-26T01:20:44.496Z,591.15
2022-12-26T01:20:55.544Z,591.05
2022-12-26T01:21:06.505Z,590.81
2022-12-26T01:21:17.488Z,590.64
2022-12-26T01:21:28.461Z,590.55
2022-12-26T01:21:39.525Z,590.45
2022-12-26T01:21:50.494Z,590.50
2022-12-26T01:22:01.483Z,590.71
2022-12-26T01:22:13.488Z,590.57
2022-12-26T01:22:25.501Z,590.46
2022-12-26T01:23:50.464Z,591.04
2022-12-26T01:24:02.472Z,591.06
2022-12-26T01:24:13.464Z,591.07
2022-12-26T01:24:24.509Z,591.05
2022-12-26T01:24:36.528Z,591.04
2022-12-26T01:27:31.473Z,591.13
2022-12-26T01:33:20.491Z,589.52
2022-12-26T01:33:31.570Z,589.51
2022-12-26T01:33:42.527Z,589.75
2022-12-26T01:36:06.532Z,589.93
2022-12-26T01:36:17.489Z,590.05
2022-12-26T01:36:28.550Z,590.21
2022-12-26T01:36:40.565Z,590.20
2022-12-26T01:36:52.470Z,590.22
2022-12-26T01:37:03.532Z,590.20
2022-12-26T01:37:15.535Z,590.03
2022-12-26T01:37:27.548Z,590.04
2022-12-26T01:37:39.459Z,590.11
2022-12-26T01:37:50.542Z,590.38
2022-12-26T01:38:02.479Z,590.39
2022-12-26T01:38:14.490Z,590.56
2022-12-26T01:38:26.507Z,590.40
2022-12-26T01:38:37.472Z,590.29
2022-12-26T01:38:48.532Z,590.21
2022-12-26T01:38:59.494Z,590.20
2022-12-26T01:39:10.467Z,590.27
2022-12-26T01:39:22.482Z,590.18
2022-12-26T01:43:48.473Z,589.50
2022-12-26T01:44:00.495Z,589.49
2022-12-26T01:44:12.497Z,589.40
2022-12-26T01:44:24.505Z,589.39
2022-12-26T01:44:36.510Z,589.33
2022-12-26T01:44:48.514Z,589.26
2022-12-26T01:44:59.472Z,589.16
2022-12-26T01:45:10.470Z,589.07
2022-12-26T01:45:21.532Z,589.06
2022-12-26T01:45:33.522Z,588.98
2022-12-26T01:45:44.539Z,588.85
2022-12-26T01:45:55.564Z,588.91
2022-12-26T01:46:07.554Z,588.85
2022-12-26T01:46:19.559Z,588.77
2022-12-26T01:46:31.490Z,588.77
2022-12-26T01:46:42.558Z,588.76
2022-12-26T01:46:54.502Z,588.65
2022-12-26T01:47:05.477Z,588.62
2022-12-26T01:47:16.473Z,588.66
2022-12-26T01:47:27.504Z,588.64
2022-12-26T01:47:39.516Z,588.75
2022-12-26T01:47:51.529Z,588.73
2022-12-26T01:48:02.491Z,588.75
2022-12-26T01:48:13.454Z,588.94
2022-12-26T01:52:19.509Z,589.24
2022-12-26T01:52:30.462Z,589.32
2022-12-26T01:52:41.521Z,589.46
2022-12-26T01:52:53.536Z,589.34
2022-12-26T01:53:05.539Z,589.41
2022-12-26T01:53:17.546Z,589.34
2022-12-26T01:53:28.502Z,589.33
2022-12-26T01:53:40.519Z,589.26
2022-12-26T01:53:51.504Z,589.30
2022-12-26T01:54:38.127Z,589.32
2022-12-26T01:54:40.424Z,589.33
2022-12-26T01:54:41.080Z,589.42
2022-12-26T01:54:42.306Z,589.25
2022-12-26T01:54:49.522Z,589.40
2022-12-26T01:54:59.502Z,589.44
2022-12-26T01:55:11.520Z,589.53
2022-12-26T01:55:22.484Z,589.67
2022-12-26T01:55:34.493Z,589.71
2022-12-26T01:55:46.519Z,589.61
2022-12-26T01:55:57.472Z,589.70
2022-12-26T01:56:09.484Z,589.67
2022-12-26T01:56:20.461Z,589.77
2022-12-26T01:56:31.534Z,589.97
2022-12-26T01:56:43.559Z,590.01
2022-12-26T01:56:55.485Z,589.81
2022-12-26T01:57:07.483Z,589.78
2022-12-26T01:57:19.501Z,589.70
2022-12-26T01:57:30.472Z,589.63
2022-12-26T01:57:42.482Z,589.74
2022-12-26T01:57:54.497Z,589.58
2022-12-26T02:03:43.486Z,588.34
2022-12-26T02:03:55.481Z,588.27
2022-12-26T02:04:07.493Z,588.60
2022-12-26T02:04:18.458Z,588.58
2022-12-26T02:04:29.510Z,588.38
2022-12-26T02:04:40.488Z,588.28
2022-12-26T02:19:10.524Z,585.81
2022-12-26T02:19:22.532Z,585.75
2022-12-26T02:19:34.451Z,585.59
2022-12-26T02:19:45.491Z,585.39
2022-12-26T02:19:57.504Z,585.42
2022-12-26T02:20:08.464Z,585.53
2022-12-26T02:20:20.479Z,585.72
2022-12-26T02:23:35.546Z,586.08
2022-12-26T02:26:53.546Z,586.96
2022-12-26T02:28:11.488Z,587.09
2022-12-26T02:28:23.505Z,587.16
2022-12-26T02:28:34.453Z,587.30
2022-12-26T02:28:46.464Z,587.39
2022-12-26T02:28:58.477Z,587.51
2022-12-26T02:29:09.464Z,587.55
2022-12-26T02:29:20.524Z,587.41
2022-12-26T02:29:31.482Z,587.40
2022-12-26T02:29:43.496Z,587.26
2022-12-26T02:29:55.513Z,587.23
2022-12-26T02:34:40.530Z,587.12
2022-12-26T02:34:51.488Z,587.07
2022-12-26T02:35:03.486Z,587.06
2022-12-26T02:35:15.501Z,586.98
2022-12-26T02:35:27.508Z,587.16
2022-12-26T02:35:39.514Z,587.15
2022-12-26T02:35:51.519Z,587.18
2022-12-26T02:36:03.535Z,587.25
2022-12-26T02:36:14.484Z,587.20
2022-12-26T02:36:25.455Z,587.17
2022-12-26T02:36:36.520Z,587.23
2022-12-26T02:36:47.492Z,587.38
2022-12-26T02:36:58.455Z,587.40
2022-12-26T02:37:09.500Z,587.38
2022-12-26T02:37:20.462Z,587.33
2022-12-26T02:37:31.500Z,587.24
2022-12-26T02:37:43.507Z,587.20
2022-12-26T02:37:55.502Z,587.27
2022-12-26T02:38:06.468Z,587.66
2022-12-26T02:38:17.522Z,587.87
2022-12-26T02:38:28.478Z,587.94
2022-12-26T02:38:40.479Z,588.16
2022-12-26T02:38:52.494Z,588.29
2022-12-26T02:39:43.286Z,588.42
2022-12-26T02:39:43.835Z,588.54
2022-12-26T02:39:44.485Z,588.42
2022-12-26T02:39:45.048Z,588.35
2022-12-26T02:39:52.530Z,588.56
2022-12-26T02:40:03.475Z,588.65
2022-12-26T02:40:15.502Z,588.66
2022-12-26T02:40:26.469Z,588.63
2022-12-26T02:40:38.476Z,588.28
2022-12-26T02:40:50.499Z,588.31
2022-12-26T02:41:01.501Z,588.41
2022-12-26T02:41:13.513Z,588.56
2022-12-26T02:49:47.488Z,588.78
2022-12-26T02:49:59.484Z,588.67
2022-12-26T02:50:10.489Z,588.50
2022-12-26T02:50:21.469Z,588.58
2022-12-26T02:50:32.523Z,588.47
2022-12-26T02:50:44.532Z,588.30
2022-12-26T02:53:25.471Z,588.13
2022-12-26T02:53:36.543Z,588.18
2022-12-26T02:53:47.502Z,588.02
2022-12-26T02:53:58.457Z,587.92
2022-12-26T02:54:10.468Z,587.93
2022-12-26T02:54:21.521Z,588.08
2022-12-26T02:54:32.476Z,588.21
2022-12-26T02:54:43.459Z,588.23
2022-12-26T02:54:54.526Z,588.27
2022-12-26T02:55:05.487Z,588.44
2022-12-26T02:55:17.492Z,588.07
2022-12-26T02:55:28.457Z,588.02
2022-12-26T02:55:39.516Z,588.03
2022-12-26T02:55:51.520Z,587.86
2022-12-26T02:56:02.496Z,587.58
2022-12-26T02:56:14.500Z,587.51
2022-12-26T02:56:26.506Z,587.52
2022-12-26T02:56:37.462Z,587.61
2022-12-26T02:56:48.513Z,587.66
2022-12-26T02:56:59.490Z,587.67
2022-12-26T02:57:10.545Z,587.67
2022-12-26T02:57:22.502Z,587.63
2022-12-26T02:57:33.475Z,587.47
2022-12-26T02:57:44.540Z,587.52
2022-12-26T02:57:56.476Z,587.56
2022-12-26T02:58:07.539Z,587.58
2022-12-26T02:58:19.457Z,587.56
2022-12-26T02:58:30.524Z,587.51
2022-12-26T02:58:41.503Z,587.67
2022-12-26T02:58:53.516Z,587.95
2022-12-26T02:59:04.475Z,587.97
2022-12-26T02:59:15.464Z,587.79
2022-12-26T02:59:55.865Z,587.51
2022-12-26T02:59:55.974Z,587.31
2022-12-26T02:59:56.399Z,587.60
2022-12-26T03:00:03.507Z,587.06
2022-12-26T03:00:14.454Z,586.76
2022-12-26T03:00:25.449Z,586.58
2022-12-26T03:00:36.530Z,586.50
2022-12-26T03:00:48.575Z,586.41
2022-12-26T03:01:00.535Z,586.29
2022-12-26T03:01:11.633Z,586.31
2022-12-26T03:01:23.567Z,586.36
2022-12-26T03:01:34.625Z,586.27
2022-12-26T03:02:53.735Z,585.75
2022-12-26T03:03:05.565Z,585.56
2022-12-26T03:03:17.582Z,585.44
2022-12-26T03:06:42.511Z,586.57
2022-12-26T03:06:54.522Z,586.69
2022-12-26T03:07:06.529Z,586.71
2022-12-26T03:07:18.446Z,586.96
2022-12-26T03:07:29.496Z,586.91
2022-12-26T03:07:41.497Z,586.69
2022-12-26T03:07:52.496Z,586.94
2022-12-26T03:08:03.443Z,586.71
2022-12-26T03:08:14.496Z,586.69
2022-12-26T03:08:26.502Z,587.02
2022-12-26T03:08:37.458Z,587.20
2022-12-26T03:08:49.480Z,587.02
2022-12-26T03:09:00.452Z,586.84
2022-12-26T03:09:11.518Z,586.88
2022-12-26T03:09:23.519Z,586.91
2022-12-26T03:09:34.484Z,587.11
2022-12-26T03:09:46.512Z,587.32
2022-12-26T03:09:57.480Z,587.35
2022-12-26T03:10:08.448Z,587.17
2022-12-26T03:10:19.507Z,587.02
2022-12-26T03:10:30.474Z,587.20
2022-12-26T03:10:42.487Z,587.32
2022-12-26T03:10:54.498Z,587.02
2022-12-26T03:12:59.531Z,586.60
2022-12-26T03:13:11.466Z,586.71
2022-12-26T03:13:23.515Z,586.38
2022-12-26T03:13:34.472Z,586.27
2022-12-26T03:13:46.464Z,586.24
2022-12-26T03:13:57.517Z,586.33
2022-12-26T03:14:09.528Z,586.43
2022-12-26T03:14:21.533Z,586.58
2022-12-26T03:14:32.492Z,586.71
2022-12-26T03:14:43.468Z,586.52
2022-12-26T03:14:54.529Z,586.28
2022-12-26T03:15:06.442Z,586.25
2022-12-26T03:15:17.494Z,586.42
2022-12-26T03:15:28.488Z,586.47
2022-12-26T03:15:40.512Z,586.43
2022-12-26T03:15:52.514Z,586.30
2022-12-26T03:16:03.496Z,586.32
2022-12-26T03:16:14.479Z,586.08
2022-12-26T03:16:25.571Z,585.81
2022-12-26T03:16:37.549Z,585.32
2022-12-26T03:16:49.506Z,585.38
2022-12-26T03:17:01.513Z,585.50
2022-12-26T03:17:12.529Z,585.47
2022-12-26T03:17:23.505Z,585.26
2022-12-26T03:17:35.539Z,585.46
2022-12-26T03:17:46.471Z,585.49
2022-12-26T03:17:58.483Z,585.24
2022-12-26T03:18:09.452Z,585.11
2022-12-26T03:18:57.590Z,585.51
2022-12-26T03:18:57.984Z,585.33
2022-12-26T03:18:59.360Z,585.02
2022-12-26T03:22:12.481Z,585.48
2022-12-26T03:22:23.447Z,585.44
2022-12-26T03:24:28.489Z,585.55
2022-12-26T03:24:40.488Z,585.44
2022-12-26T03:24:51.439Z,585.35
2022-12-26T03:25:02.496Z,585.53
2022-12-26T03:25:13.477Z,585.58
2022-12-26T03:25:24.442Z,585.92
2022-12-26T03:25:35.529Z,586.14
2022-12-26T03:25:46.480Z,586.08
2022-12-26T03:25:58.482Z,586.13
2022-12-26T03:26:10.486Z,586.29
2022-12-26T03:26:22.502Z,586.52
2022-12-26T03:26:34.528Z,586.62
2022-12-26T03:26:45.487Z,586.77
2022-12-26T03:34:51.480Z,587.58
2022-12-26T03:35:20.230Z,587.54
2022-12-26T03:35:21.525Z,587.47
2022-12-26T03:35:33.450Z,587.47
2022-12-26T03:43:09.471Z,587.28
2022-12-26T03:43:21.483Z,587.34
2022-12-26T03:43:32.444Z,587.42
2022-12-26T03:43:43.500Z,587.37
2022-12-26T03:45:27.449Z,587.68
2022-12-26T03:45:38.494Z,587.65
2022-12-26T03:45:50.516Z,587.61
2022-12-26T03:46:01.478Z,587.55
2022-12-26T03:46:12.486Z,587.56
2022-12-26T03:46:23.517Z,587.60
2022-12-26T03:46:34.501Z,587.64
2022-12-26T03:46:45.500Z,587.68
2022-12-26T03:46:57.503Z,587.71
2022-12-26T03:47:08.459Z,587.77
2022-12-26T03:47:19.522Z,587.76
2022-12-26T03:52:15.471Z,587.74
2022-12-26T03:52:27.489Z,587.69
2022-12-26T03:52:38.445Z,587.78
2022-12-26T03:52:50.455Z,587.90
2022-12-26T03:53:02.469Z,587.90
2022-12-26T03:53:13.526Z,587.84
2022-12-26T03:53:25.531Z,587.73
2022-12-26T03:53:37.432Z,587.76
2022-12-26T03:53:48.480Z,588.01
2022-12-26T03:53:59.454Z,588.08
2022-12-26T03:54:11.454Z,588.08
2022-12-26T03:54:23.466Z,588.15
2022-12-26T03:54:34.547Z,588.09
2022-12-26T03:54:46.441Z,587.99
2022-12-26T03:54:58.454Z,587.95
2022-12-26T03:55:09.506Z,587.93
2022-12-26T03:55:20.470Z,588.03
2022-12-26T03:55:31.532Z,588.04
2022-12-26T03:55:43.445Z,587.89
2022-12-26T03:55:55.485Z,587.94
2022-12-26T03:56:06.452Z,588.05
2022-12-26T03:56:18.471Z,588.07
2022-12-26T03:56:32.707Z,588.14
2022-12-26T03:56:41.462Z,588.24
2022-12-26T03:56:53.484Z,588.24
2022-12-26T03:57:04.440Z,588.26
2022-12-26T03:57:16.463Z,588.20
2022-12-26T03:57:28.468Z,588.16
2022-12-26T03:57:39.450Z,588.14
2022-12-26T03:57:50.537Z,588.22
2022-12-26T03:58:01.486Z,588.26
2022-12-26T03:58:12.451Z,588.16
2022-12-26T03:58:24.463Z,588.03
2022-12-26T03:58:36.480Z,587.98
2022-12-26T03:58:47.530Z,588.10
2022-12-26T03:58:59.467Z,588.09
2022-12-26T03:59:10.559Z,588.18
2022-12-26T03:59:22.527Z,588.14
2022-12-26T03:59:34.537Z,588.07
2022-12-26T03:59:46.545Z,588.15
2022-12-26T03:59:58.528Z,588.39
2022-12-26T04:00:10.476Z,588.44
2022-12-26T04:00:21.440Z,588.55
2022-12-26T04:00:32.512Z,588.56
2022-12-26T04:00:44.515Z,588.54
2022-12-26T04:00:56.584Z,588.55
2022-12-26T04:03:17.480Z,588.51
2022-12-26T04:03:28.600Z,588.48
2022-12-26T04:03:40.536Z,588.45
2022-12-26T04:03:51.537Z,588.43
2022-12-26T04:04:02.570Z,588.31
2022-12-26T04:04:14.448Z,588.33
2022-12-26T04:04:25.482Z,588.47
2022-12-26T04:04:37.483Z,588.55
2022-12-26T04:08:26.449Z,587.55
2022-12-26T04:08:38.456Z,587.46
2022-12-26T04:08:50.466Z,587.34
2022-12-26T04:09:02.474Z,587.16
2022-12-26T04:09:13.438Z,586.93
2022-12-26T04:09:24.500Z,586.88
2022-12-26T04:11:01.488Z,587.48
2022-12-26T04:11:12.446Z,587.59
2022-12-26T04:11:24.463Z,587.60
2022-12-26T04:11:36.470Z,587.88
2022-12-26T04:11:48.506Z,588.08
2022-12-26T04:11:59.474Z,588.08
2022-12-26T04:12:11.476Z,588.08
2022-12-26T04:12:23.491Z,588.00
2022-12-26T04:16:33.436Z,587.60
2022-12-26T04:16:44.488Z,587.67
2022-12-26T04:16:56.490Z,587.59
2022-12-26T04:17:07.465Z,587.54
2022-12-26T04:17:19.478Z,587.46
2022-12-26T04:24:34.512Z,587.81
2022-12-26T04:30:46.551Z,587.79
2022-12-26T04:30:58.499Z,587.70
2022-12-26T04:31:09.537Z,587.61
2022-12-26T04:31:21.485Z,587.54
2022-12-26T04:31:32.617Z,587.45
2022-12-26T04:31:44.454Z,587.44
2022-12-26T04:31:55.509Z,587.47
2022-12-26T04:32:07.427Z,587.52
2022-12-26T04:32:18.498Z,587.44
2022-12-26T04:32:30.503Z,587.42
2022-12-26T04:32:42.510Z,587.51
2022-12-26T04:32:53.476Z,587.45
2022-12-26T04:33:04.446Z,587.56
2022-12-26T04:33:15.509Z,587.62
2022-12-26T04:33:27.521Z,587.60
2022-12-26T04:33:38.477Z,587.55
2022-12-26T04:33:49.468Z,587.57
2022-12-26T04:34:01.489Z,587.67
2022-12-26T04:34:12.464Z,587.74
2022-12-26T04:34:23.524Z,587.71
2022-12-26T04:34:34.473Z,587.61
2022-12-26T04:34:46.489Z,587.52
2022-12-26T04:34:57.449Z,587.48
2022-12-26T04:35:09.456Z,587.47
2022-12-26T04:35:21.476Z,587.42
2022-12-26T04:35:32.431Z,587.33
2022-12-26T04:35:43.527Z,587.50
2022-12-26T04:35:54.476Z,587.60
2022-12-26T04:43:47.277Z,587.77
2022-12-26T04:43:48.181Z,587.77
2022-12-26T04:43:48.298Z,587.73
2022-12-26T04:43:49.519Z,587.73
2022-12-26T04:43:55.451Z,587.65
2022-12-26T04:46:00.563Z,587.88
2022-12-26T04:46:12.560Z,587.81
2022-12-26T04:46:24.540Z,587.79
2022-12-26T04:46:36.488Z,587.79
2022-12-26T04:46:48.550Z,587.85
2022-12-26T04:46:59.499Z,587.85
2022-12-26T04:47:10.457Z,587.83
2022-12-26T04:47:21.521Z,587.79
2022-12-26T04:47:32.484Z,587.85
2022-12-26T04:47:44.495Z,587.84
2022-12-26T04:47:56.505Z,587.77
2022-12-26T04:48:08.515Z,587.72
2022-12-26T04:48:19.470Z,587.78
2022-12-26T04:48:30.438Z,587.82
2022-12-26T04:48:41.496Z,587.82
2022-12-26T04:48:52.464Z,588.04
2022-12-26T04:49:04.469Z,588.04
2022-12-26T04:49:15.427Z,588.04
2022-12-26T04:49:26.479Z,588.02
2022-12-26T04:49:37.452Z,588.00
2022-12-26T04:49:49.461Z,588.16
2022-12-26T04:50:00.475Z,588.08
2022-12-26T04:50:11.428Z,588.01
2022-12-26T04:50:22.407Z,588.04
2022-12-26T04:50:33.541Z,588.14
2022-12-26T04:50:45.455Z,588.17
2022-12-26T04:50:57.467Z,588.20
2022-12-26T04:51:09.489Z,588.15
2022-12-26T04:51:20.424Z,588.15
2022-12-26T04:51:32.455Z,588.11
2022-12-26T04:51:43.422Z,588.18
2022-12-26T04:53:53.476Z,588.55
2022-12-26T04:54:04.433Z,588.58
2022-12-26T04:54:16.456Z,588.67
2022-12-26T04:54:28.468Z,588.57
2022-12-26T04:54:40.486Z,588.46
2022-12-26T04:54:52.496Z,588.40
2022-12-26T04:55:03.520Z,588.37
2022-12-26T04:55:14.463Z,588.57
2022-12-26T04:55:26.486Z,588.79
2022-12-26T04:55:37.459Z,588.91
2022-12-26T04:55:48.426Z,588.75
2022-12-26T04:55:59.523Z,588.41
2022-12-26T04:56:11.455Z,588.30
2022-12-26T04:56:23.468Z,588.18
2022-12-26T04:56:35.485Z,588.17
2022-12-26T04:56:46.463Z,588.29
2022-12-26T04:56:57.430Z,588.29
2022-12-26T04:57:08.492Z,588.40
2022-12-26T04:57:19.453Z,588.50
2022-12-26T04:57:31.469Z,588.56
2022-12-26T04:57:42.423Z,588.63
2022-12-26T04:57:53.478Z,588.59
2022-12-26T04:58:05.500Z,588.58
2022-12-26T04:58:16.453Z,588.62
2022-12-26T04:58:28.463Z,588.53
2022-12-26T04:58:40.471Z,588.45
2022-12-26T04:58:51.435Z,588.42
2022-12-26T04:59:02.494Z,588.32
2022-12-26T04:59:13.462Z,588.29
2022-12-26T04:59:24.516Z,588.46
2022-12-26T04:59:36.435Z,588.49
2022-12-26T04:59:47.474Z,588.45
2022-12-26T04:59:59.473Z,588.38
2022-12-26T05:00:10.461Z,588.48
2022-12-26T05:00:21.465Z,588.48
2022-12-26T05:00:33.480Z,588.43
2022-12-26T05:00:45.499Z,588.25
2022-12-26T05:00:57.503Z,588.53
2022-12-26T05:01:09.623Z,588.76
2022-12-26T05:02:30.623Z,589.44
2022-12-26T05:02:42.560Z,589.62
2022-12-26T05:02:53.518Z,589.66
2022-12-26T05:03:04.554Z,589.87
2022-12-26T05:03:18.996Z,590.08
2022-12-26T05:03:26.550Z,590.11
2022-12-26T05:03:37.615Z,589.99
2022-12-26T05:03:48.536Z,590.09
2022-12-26T05:04:00.644Z,590.21
2022-12-26T05:04:12.478Z,590.36
2022-12-26T05:05:31.444Z,590.96
2022-12-26T05:05:42.501Z,590.73
2022-12-26T05:05:54.512Z,590.55
2022-12-26T05:06:05.473Z,590.50
2022-12-26T05:06:17.486Z,590.56
2022-12-26T05:06:29.504Z,590.38
2022-12-26T05:06:41.518Z,590.80
2022-12-26T05:06:53.441Z,590.49
2022-12-26T05:07:04.500Z,590.55
2022-12-26T05:07:16.527Z,590.64
2022-12-26T05:07:28.429Z,590.47
2022-12-26T05:07:39.469Z,590.67
2022-12-26T05:07:50.436Z,590.49
2022-12-26T05:08:01.432Z,590.25
2022-12-26T05:08:12.479Z,590.05
2022-12-26T05:08:23.445Z,589.96
2022-12-26T05:08:34.500Z,589.82
2022-12-26T05:08:46.514Z,589.65
2022-12-26T05:08:58.514Z,589.71